Celebrity Mercury — 9HJG9 — position and weather

sailwx.info

Track history (hours):
 
Tides and Currents Weather Stations Pressure Air Temp Water Temp Dewpoint Dewpoint Depression Visibility Wind Speed Wind Dir Waves Ship Positions

Celebrity Mercury

Last reported at 2019-Aug-23 16:58 UTC. Time now 2019-Aug-24 08:17 UTC.
Position N 36°23' E 025°09'.

Length 264 m; draft 8.5 m.

Type: Passenger vessel. MMSI: 249053000.

Date/timePositionNaut miles runAvg speedWind from/ knotsBaromVisibWave heightAir tempDewpointWater temp
2019-Aug-23 16:58N 36°23' E 025°09'75 3.6
2019-Aug-22 20:04N 37°10' E 023°56'116.3
2019-Aug-22 20:00N 37°11' E 023°56'816.3
2019-Aug-22 19:30N 37°19' E 023°53'816.3
2019-Aug-22 19:00N 37°26' E 023°49'815.9
2019-Aug-22 18:31N 37°33' E 023°44'815.8
2019-Aug-22 18:01N 37°41' E 023°41'816.3
2019-Aug-22 17:30N 37°48' E 023°37'714.7
2019-Aug-22 17:00N 37°56' E 023°37'1 2.6
2019-Aug-22 16:29N 37°56' E 023°38'0 0.0
2019-Aug-22 15:59N 37°56' E 023°38'0 0.0
2019-Aug-22 15:29N 37°56' E 023°38'0 0.0
2019-Aug-22 14:59N 37°56' E 023°38'0 0.0
2019-Aug-22 14:29N 37°56' E 023°38'0 0.0
2019-Aug-22 13:59N 37°56' E 023°38'0 0.0
2019-Aug-22 13:26N 37°56' E 023°38'0 0.0
2019-Aug-22 12:59N 37°56' E 023°38'0 0.0
2019-Aug-22 12:29N 37°56' E 023°38'0 0.0
2019-Aug-22 11:56N 37°56' E 023°38'0 0.0
2019-Aug-22 11:29N 37°56' E 023°38'0 0.0
2019-Aug-22 10:59N 37°56' E 023°38'0 0.0
2019-Aug-22 10:29N 37°56' E 023°38'0 0.0
2019-Aug-22 09:56N 37°56' E 023°38'0 0.0
2019-Aug-22 09:29N 37°56' E 023°38'0 0.0
2019-Aug-22 08:59N 37°56' E 023°38'0 0.0
2019-Aug-22 08:29N 37°56' E 023°38'0 0.0
2019-Aug-22 07:59N 37°56' E 023°38'0 0.0
2019-Aug-22 07:29N 37°56' E 023°38'0 0.0
2019-Aug-22 06:59N 37°56' E 023°38'0 0.0
2019-Aug-22 06:29N 37°56' E 023°38'0 0.0
2019-Aug-22 05:59N 37°56' E 023°38'0 0.0
2019-Aug-22 05:29N 37°56' E 023°38'0 0.0
2019-Aug-22 04:59N 37°56' E 023°38'0 0.0
2019-Aug-22 04:29N 37°56' E 023°38'0 0.0
2019-Aug-22 03:59N 37°56' E 023°38'0 0.0
2019-Aug-22 03:29N 37°56' E 023°38'0 0.0
2019-Aug-22 02:59N 37°56' E 023°38'0 0.0
2019-Aug-22 02:29N 37°56' E 023°38'0 0.3
2019-Aug-22 02:00N 37°56' E 023°38'2 3.1
2019-Aug-22 01:30N 37°55' E 023°37'612.6
2019-Aug-22 01:01N 37°49' E 023°40'713.0
2019-Aug-22 00:30N 37°44' E 023°43'612.9
2019-Aug-22 00:00N 37°38' E 023°47'713.6
2019-Aug-21 23:30N 37°31' E 023°49'816.3
2019-Aug-21 23:01N 37°23' E 023°52'916.0
2019-Aug-21 22:27N 37°15' E 023°56'209 6.2
2019-Aug-20 13:00N 35°48' E 020°00'26710.3 260 / 71017.010.8 28.0 28.0
2019-Aug-19 11:01N 35°53' E 014°31'0 0.0
2019-Aug-19 10:58N 35°53' E 014°31'0 0.0
2019-Aug-19 10:28N 35°53' E 014°31'0 0.0
2019-Aug-19 09:58N 35°53' E 014°31'0 0.0
2019-Aug-19 09:28N 35°53' E 014°31'0 0.0
2019-Aug-19 08:58N 35°53' E 014°31'0 0.0
2019-Aug-19 08:28N 35°53' E 014°31'0 0.0
2019-Aug-19 07:58N 35°53' E 014°31'0 0.0
2019-Aug-19 07:28N 35°53' E 014°31'0 0.0
2019-Aug-19 06:58N 35°53' E 014°31'0 0.0
2019-Aug-19 06:28N 35°53' E 014°31'54 4.5
2019-Aug-18 18:29N 36°30' E 013°42'1410.7
2019-Aug-18 17:10N 36°38' E 013°28'312.2
2019-Aug-18 16:57N 36°40' E 013°25'512.5
2019-Aug-18 16:30N 36°43' E 013°20'612.9
2019-Aug-18 16:00N 36°47' E 013°13'713.0
2019-Aug-18 15:30N 36°51' E 013°06'713.2
2019-Aug-18 15:00N 36°55' E 012°60'713.1
2019-Aug-18 14:30N 36°58' E 012°53'713.5
2019-Aug-18 14:00N 37°02' E 012°46'713.5
2019-Aug-18 13:30N 37°06' E 012°39'713.1
2019-Aug-18 13:00N 37°11' E 012°33'8738.7
2019-Aug-18 13:00N 37°12' E 012°24'5 9.7 150 / 131016.0 26.0 29.0
2019-Aug-18 12:30N 37°16' E 012°28'713.5
2019-Aug-18 12:00N 37°21' E 012°22'8311.3
2019-Aug-18 04:39N 38°44' E 012°22'213.7
2019-Aug-18 04:31N 38°45' E 012°24'713.6
2019-Aug-18 04:01N 38°51' E 012°29'813.5
2019-Aug-18 03:27N 38°57' E 012°34'613.4
2019-Aug-18 03:00N 39°02' E 012°39'2013.6
2019-Aug-18 01:33N 39°18' E 012°53'113.6
2019-Aug-18 01:28N 39°19' E 012°54'2113.6
2019-Aug-17 23:56N 39°36' E 013°10'713.4
2019-Aug-17 23:26N 39°42' E 013°15'2113.4
2019-Aug-17 21:54N 39°58' E 013°31'613.6
2019-Aug-17 21:29N 40°03' E 013°35'713.7
2019-Aug-17 21:00N 40°08' E 013°40'713.8
2019-Aug-17 20:30N 40°14' E 013°45'713.5
2019-Aug-17 20:00N 40°19' E 013°51'713.4
2019-Aug-17 19:29N 40°25' E 013°56'713.5
2019-Aug-17 19:00N 40°30' E 014°01'713.6
2019-Aug-17 18:30N 40°36' E 014°06'1313.4
2019-Aug-17 17:30N 40°47' E 014°16'3 6.7
2019-Aug-17 17:00N 40°50' E 014°16'0 0.0
2019-Aug-17 16:22N 40°50' E 014°16'0 0.0
2019-Aug-17 15:58N 40°50' E 014°16'0 0.0
2019-Aug-17 15:28N 40°50' E 014°16'0 0.0
2019-Aug-17 14:58N 40°50' E 014°16'0 0.0
2019-Aug-17 14:25N 40°50' E 014°16'0 0.0
2019-Aug-17 13:58N 40°50' E 014°16'0 0.0
2019-Aug-17 13:28N 40°50' E 014°16'0 0.0
2019-Aug-17 12:55N 40°50' E 014°16'0 0.0
2019-Aug-17 12:28N 40°50' E 014°16'0 0.0
2019-Aug-17 11:58N 40°50' E 014°16'0 0.0
2019-Aug-17 11:25N 40°50' E 014°16'0 0.0
2019-Aug-17 10:58N 40°50' E 014°16'0 0.0
2019-Aug-17 10:28N 40°50' E 014°16'0 0.0
2019-Aug-17 09:58N 40°50' E 014°16'0 0.0
2019-Aug-17 09:28N 40°50' E 014°16'0 0.0
2019-Aug-17 08:58N 40°50' E 014°16'0 0.0
2019-Aug-17 08:28N 40°50' E 014°16'0 0.0
2019-Aug-17 07:58N 40°50' E 014°16'0 0.0
2019-Aug-17 07:25N 40°50' E 014°16'0 0.0
2019-Aug-17 06:58N 40°50' E 014°16'0 0.0
2019-Aug-17 06:28N 40°50' E 014°16'0 0.0
2019-Aug-17 05:58N 40°50' E 014°16'0 0.2
2019-Aug-17 05:30N 40°50' E 014°16'2 3.3
2019-Aug-17 05:00N 40°49' E 014°17'611.6
2019-Aug-17 04:30N 40°44' E 014°12'611.8
2019-Aug-17 04:00N 40°39' E 014°08'611.8
2019-Aug-17 03:30N 40°37' E 014°01'612.5
2019-Aug-17 03:00N 40°36' E 013°53'612.8
2019-Aug-17 02:30N 40°36' E 013°44'613.0
2019-Aug-17 02:00N 40°38' E 013°36'713.6
2019-Aug-17 01:30N 40°40' E 013°28'713.0
2019-Aug-17 00:57N 40°42' E 013°19'1018.5
2019-Aug-17 00:26N 40°45' E 013°07'2018.3
2019-Aug-16 23:20N 40°52' E 012°42'1118.5
2019-Aug-16 22:45N 41°00' E 012°33'518.7
2019-Aug-16 22:30N 41°04' E 012°29'1018.7
2019-Aug-16 21:59N 41°11' E 012°21'2318.5
2019-Aug-16 20:44N 41°29' E 012°02'2018.7
2019-Aug-16 19:40N 41°45' E 011°46'518.6
2019-Aug-16 19:25N 41°49' E 011°42'15 0.9
2019-Aug-16 03:34N 42°03' E 011°38'212.6
2019-Aug-16 03:25N 42°03' E 011°36'612.7
2019-Aug-16 02:59N 42°01' E 011°29'1612.7
2019-Aug-16 01:42N 41°54' E 011°09'212.9
2019-Aug-16 01:30N 41°53' E 011°06'713.6
2019-Aug-16 01:00N 41°51' E 010°57'1115.8
2019-Aug-16 00:17N 41°47' E 010°43'718.3
2019-Aug-15 23:54N 41°44' E 010°34'718.2
2019-Aug-15 23:30N 41°41' E 010°26'7517.6
2019-Aug-15 19:15N 41°13' E 008°53'618.3
2019-Aug-15 18:56N 41°09' E 008°47'818.2
2019-Aug-15 18:30N 41°03' E 008°40'1717.1
2019-Aug-15 17:28N 40°51' E 008°23'1 1.0
2019-Aug-15 16:51N 40°51' E 008°23'0 0.0
2019-Aug-15 15:03N 40°51' E 008°23'0 0.0
2019-Aug-15 14:39N 40°51' E 008°23'0 0.0
2019-Aug-15 14:30N 40°51' E 008°23'0 0.0
2019-Aug-15 13:33N 40°51' E 008°23'0 0.0
2019-Aug-15 13:15N 40°51' E 008°23'0 0.0
2019-Aug-15 13:00N 40°51' E 008°23'0 0.0
2019-Aug-15 12:21N 40°51' E 008°23'0 0.0
2019-Aug-15 11:39N 40°51' E 008°23'0 0.0
2019-Aug-15 11:24N 40°51' E 008°23'0 0.0
2019-Aug-15 10:57N 40°51' E 008°23'0 0.0
2019-Aug-15 10:27N 40°51' E 008°23'0 0.0
2019-Aug-15 09:57N 40°51' E 008°23'0 0.0
2019-Aug-15 09:24N 40°51' E 008°23'0 0.0
2019-Aug-15 08:48N 40°51' E 008°23'0 0.0
2019-Aug-15 05:45N 40°51' E 008°23'0 1.2
2019-Aug-15 05:29N 40°51' E 008°23'2 4.5
2019-Aug-15 04:59N 40°53' E 008°24'4 7.8
2019-Aug-15 04:26N 40°57' E 008°25'4 8.2
2019-Aug-15 04:00N 41°01' E 008°26'6 8.0
2019-Aug-15 03:18N 41°06' E 008°27'3 8.1
2019-Aug-15 02:56N 41°09' E 008°26'22 8.2
2019-Aug-15 00:16N 41°31' E 008°22'2 8.2
2019-Aug-15 00:00N 41°33' E 008°22'5 8.2
2019-Aug-14 23:25N 41°38' E 008°21'3 8.1
2019-Aug-14 23:00N 41°41' E 008°21'4 7.4
2019-Aug-14 22:30N 41°45' E 008°23'4 7.8
2019-Aug-14 22:00N 41°46' E 008°28'4 8.2
2019-Aug-14 21:30N 41°48' E 008°33'4 8.4
2019-Aug-14 21:00N 41°50' E 008°38'6 8.6
2019-Aug-14 20:20N 41°53' E 008°44'2 0.8
2019-Aug-14 17:41N 41°55' E 008°45'0 0.0
2019-Aug-14 17:20N 41°55' E 008°45'0 0.0
2019-Aug-14 16:08N 41°55' E 008°45'0 0.0
2019-Aug-14 15:59N 41°55' E 008°45'0 0.0
2019-Aug-14 15:29N 41°55' E 008°45'0 0.0
2019-Aug-14 14:59N 41°55' E 008°45'0 0.0
2019-Aug-14 14:29N 41°55' E 008°45'0 0.0
2019-Aug-14 13:56N 41°55' E 008°45'0 0.0
2019-Aug-14 13:29N 41°55' E 008°45'0 0.0
2019-Aug-14 12:59N 41°55' E 008°45'0 0.0
2019-Aug-14 12:29N 41°55' E 008°45'0 0.0
2019-Aug-14 11:59N 41°55' E 008°45'0 0.0
2019-Aug-14 11:29N 41°55' E 008°45'0 0.0
2019-Aug-14 10:59N 41°55' E 008°45'0 0.0
2019-Aug-14 10:23N 41°55' E 008°45'0 0.0
2019-Aug-14 09:59N 41°55' E 008°45'0 0.0
2019-Aug-14 09:29N 41°55' E 008°45'0 0.0
2019-Aug-14 08:59N 41°55' E 008°45'0 0.0
2019-Aug-14 08:26N 41°55' E 008°45'36 5.8
2019-Aug-14 02:09N 41°20' E 008°54'3710.6
2019-Aug-13 22:40N 41°10' E 009°41'211.4
2019-Aug-13 22:30N 41°09' E 009°43'1511.7
2019-Aug-13 21:12N 40°57' E 009°56'1012.1
2019-Aug-13 20:22N 40°48' E 010°02'612.1
2019-Aug-13 19:55N 40°44' E 010°06'611.9
2019-Aug-13 19:26N 40°38' E 010°09'714.3
2019-Aug-13 18:57N 40°32' E 010°13'2316.0
2019-Aug-13 17:29N 40°11' E 010°25'815.9
2019-Aug-13 17:01N 40°04' E 010°29'  
Track history (hours):
 
Tides and Currents Weather Stations Pressure Air Temp Water Temp Dewpoint Dewpoint Depression Visibility Wind Speed Wind Dir Waves Ship Positions

Celebrity Mercury

Last reported at 2019-Aug-23 16:58 UTC. Time now 2019-Aug-24 08:17 UTC.
Position N 36°23' E 025°09'.

Length 264 m; draft 8.5 m.

Type: Passenger vessel. MMSI: 249053000.

Date/timePositionNaut miles runAvg speedWind from/ knotsBaromVisibWave heightAir tempDewpointWater temp
2019-Aug-23 16:58N 36°23' E 025°09'75 3.6
2019-Aug-22 20:04N 37°10' E 023°56'116.3
2019-Aug-22 20:00N 37°11' E 023°56'816.3
2019-Aug-22 19:30N 37°19' E 023°53'816.3
2019-Aug-22 19:00N 37°26' E 023°49'815.9
2019-Aug-22 18:31N 37°33' E 023°44'815.8
2019-Aug-22 18:01N 37°41' E 023°41'816.3
2019-Aug-22 17:30N 37°48' E 023°37'714.7
2019-Aug-22 17:00N 37°56' E 023°37'1 2.6
2019-Aug-22 16:29N 37°56' E 023°38'0 0.0
2019-Aug-22 15:59N 37°56' E 023°38'0 0.0
2019-Aug-22 15:29N 37°56' E 023°38'0 0.0
2019-Aug-22 14:59N 37°56' E 023°38'0 0.0
2019-Aug-22 14:29N 37°56' E 023°38'0 0.0
2019-Aug-22 13:59N 37°56' E 023°38'0 0.0
2019-Aug-22 13:26N 37°56' E 023°38'0 0.0
2019-Aug-22 12:59N 37°56' E 023°38'0 0.0
2019-Aug-22 12:29N 37°56' E 023°38'0 0.0
2019-Aug-22 11:56N 37°56' E 023°38'0 0.0
2019-Aug-22 11:29N 37°56' E 023°38'0 0.0
2019-Aug-22 10:59N 37°56' E 023°38'0 0.0
2019-Aug-22 10:29N 37°56' E 023°38'0 0.0
2019-Aug-22 09:56N 37°56' E 023°38'0 0.0
2019-Aug-22 09:29N 37°56' E 023°38'0 0.0
2019-Aug-22 08:59N 37°56' E 023°38'0 0.0
2019-Aug-22 08:29N 37°56' E 023°38'0 0.0
2019-Aug-22 07:59N 37°56' E 023°38'0 0.0
2019-Aug-22 07:29N 37°56' E 023°38'0 0.0
2019-Aug-22 06:59N 37°56' E 023°38'0 0.0
2019-Aug-22 06:29N 37°56' E 023°38'0 0.0
2019-Aug-22 05:59N 37°56' E 023°38'0 0.0
2019-Aug-22 05:29N 37°56' E 023°38'0 0.0
2019-Aug-22 04:59N 37°56' E 023°38'0 0.0
2019-Aug-22 04:29N 37°56' E 023°38'0 0.0
2019-Aug-22 03:59N 37°56' E 023°38'0 0.0
2019-Aug-22 03:29N 37°56' E 023°38'0 0.0
2019-Aug-22 02:59N 37°56' E 023°38'0 0.0
2019-Aug-22 02:29N 37°56' E 023°38'0 0.3
2019-Aug-22 02:00N 37°56' E 023°38'2 3.1
2019-Aug-22 01:30N 37°55' E 023°37'612.6
2019-Aug-22 01:01N 37°49' E 023°40'713.0
2019-Aug-22 00:30N 37°44' E 023°43'612.9
2019-Aug-22 00:00N 37°38' E 023°47'713.6
2019-Aug-21 23:30N 37°31' E 023°49'816.3
2019-Aug-21 23:01N 37°23' E 023°52'916.0
2019-Aug-21 22:27N 37°15' E 023°56'209 6.2
2019-Aug-20 13:00N 35°48' E 020°00'26710.3 260 / 71017.010.8 28.0 28.0
2019-Aug-19 11:01N 35°53' E 014°31'0 0.0
2019-Aug-19 10:58N 35°53' E 014°31'0 0.0
2019-Aug-19 10:28N 35°53' E 014°31'0 0.0
2019-Aug-19 09:58N 35°53' E 014°31'0 0.0
2019-Aug-19 09:28N 35°53' E 014°31'0 0.0
2019-Aug-19 08:58N 35°53' E 014°31'0 0.0
2019-Aug-19 08:28N 35°53' E 014°31'0 0.0
2019-Aug-19 07:58N 35°53' E 014°31'0 0.0
2019-Aug-19 07:28N 35°53' E 014°31'0 0.0
2019-Aug-19 06:58N 35°53' E 014°31'0 0.0
2019-Aug-19 06:28N 35°53' E 014°31'54 4.5
2019-Aug-18 18:29N 36°30' E 013°42'1410.7
2019-Aug-18 17:10N 36°38' E 013°28'312.2
2019-Aug-18 16:57N 36°40' E 013°25'512.5
2019-Aug-18 16:30N 36°43' E 013°20'612.9
2019-Aug-18 16:00N 36°47' E 013°13'713.0
2019-Aug-18 15:30N 36°51' E 013°06'713.2
2019-Aug-18 15:00N 36°55' E 012°60'713.1
2019-Aug-18 14:30N 36°58' E 012°53'713.5
2019-Aug-18 14:00N 37°02' E 012°46'713.5
2019-Aug-18 13:30N 37°06' E 012°39'713.1
2019-Aug-18 13:00N 37°11' E 012°33'8738.7
2019-Aug-18 13:00N 37°12' E 012°24'5 9.7 150 / 131016.0 26.0 29.0
2019-Aug-18 12:30N 37°16' E 012°28'713.5
2019-Aug-18 12:00N 37°21' E 012°22'8311.3
2019-Aug-18 04:39N 38°44' E 012°22'213.7
2019-Aug-18 04:31N 38°45' E 012°24'713.6
2019-Aug-18 04:01N 38°51' E 012°29'813.5
2019-Aug-18 03:27N 38°57' E 012°34'613.4
2019-Aug-18 03:00N 39°02' E 012°39'2013.6
2019-Aug-18 01:33N 39°18' E 012°53'113.6
2019-Aug-18 01:28N 39°19' E 012°54'2113.6
2019-Aug-17 23:56N 39°36' E 013°10'713.4
2019-Aug-17 23:26N 39°42' E 013°15'2113.4
2019-Aug-17 21:54N 39°58' E 013°31'613.6
2019-Aug-17 21:29N 40°03' E 013°35'713.7
2019-Aug-17 21:00N 40°08' E 013°40'713.8
2019-Aug-17 20:30N 40°14' E 013°45'713.5
2019-Aug-17 20:00N 40°19' E 013°51'713.4
2019-Aug-17 19:29N 40°25' E 013°56'713.5
2019-Aug-17 19:00N 40°30' E 014°01'713.6
2019-Aug-17 18:30N 40°36' E 014°06'1313.4
2019-Aug-17 17:30N 40°47' E 014°16'3 6.7
2019-Aug-17 17:00N 40°50' E 014°16'0 0.0
2019-Aug-17 16:22N 40°50' E 014°16'0 0.0
2019-Aug-17 15:58N 40°50' E 014°16'0 0.0
2019-Aug-17 15:28N 40°50' E 014°16'0 0.0
2019-Aug-17 14:58N 40°50' E 014°16'0 0.0
2019-Aug-17 14:25N 40°50' E 014°16'0 0.0
2019-Aug-17 13:58N 40°50' E 014°16'0 0.0
2019-Aug-17 13:28N 40°50' E 014°16'0 0.0
2019-Aug-17 12:55N 40°50' E 014°16'0 0.0
2019-Aug-17 12:28N 40°50' E 014°16'0 0.0
2019-Aug-17 11:58N 40°50' E 014°16'0 0.0
2019-Aug-17 11:25N 40°50' E 014°16'0 0.0
2019-Aug-17 10:58N 40°50' E 014°16'0 0.0
2019-Aug-17 10:28N 40°50' E 014°16'0 0.0
2019-Aug-17 09:58N 40°50' E 014°16'0 0.0
2019-Aug-17 09:28N 40°50' E 014°16'0 0.0
2019-Aug-17 08:58N 40°50' E 014°16'0 0.0
2019-Aug-17 08:28N 40°50' E 014°16'0 0.0
2019-Aug-17 07:58N 40°50' E 014°16'0 0.0
2019-Aug-17 07:25N 40°50' E 014°16'0 0.0
2019-Aug-17 06:58N 40°50' E 014°16'0 0.0
2019-Aug-17 06:28N 40°50' E 014°16'0 0.0
2019-Aug-17 05:58N 40°50' E 014°16'0 0.2
2019-Aug-17 05:30N 40°50' E 014°16'2 3.3
2019-Aug-17 05:00N 40°49' E 014°17'611.6
2019-Aug-17 04:30N 40°44' E 014°12'611.8
2019-Aug-17 04:00N 40°39' E 014°08'611.8
2019-Aug-17 03:30N 40°37' E 014°01'612.5
2019-Aug-17 03:00N 40°36' E 013°53'612.8
2019-Aug-17 02:30N 40°36' E 013°44'613.0
2019-Aug-17 02:00N 40°38' E 013°36'713.6
2019-Aug-17 01:30N 40°40' E 013°28'713.0
2019-Aug-17 00:57N 40°42' E 013°19'1018.5
2019-Aug-17 00:26N 40°45' E 013°07'2018.3
2019-Aug-16 23:20N 40°52' E 012°42'1118.5
2019-Aug-16 22:45N 41°00' E 012°33'518.7
2019-Aug-16 22:30N 41°04' E 012°29'1018.7
2019-Aug-16 21:59N 41°11' E 012°21'2318.5
2019-Aug-16 20:44N 41°29' E 012°02'2018.7
2019-Aug-16 19:40N 41°45' E 011°46'518.6
2019-Aug-16 19:25N 41°49' E 011°42'15 0.9
2019-Aug-16 03:34N 42°03' E 011°38'212.6
2019-Aug-16 03:25N 42°03' E 011°36'612.7
2019-Aug-16 02:59N 42°01' E 011°29'1612.7
2019-Aug-16 01:42N 41°54' E 011°09'212.9
2019-Aug-16 01:30N 41°53' E 011°06'713.6
2019-Aug-16 01:00N 41°51' E 010°57'1115.8
2019-Aug-16 00:17N 41°47' E 010°43'718.3
2019-Aug-15 23:54N 41°44' E 010°34'718.2
2019-Aug-15 23:30N 41°41' E 010°26'7517.6
2019-Aug-15 19:15N 41°13' E 008°53'618.3
2019-Aug-15 18:56N 41°09' E 008°47'818.2
2019-Aug-15 18:30N 41°03' E 008°40'1717.1
2019-Aug-15 17:28N 40°51' E 008°23'1 1.0
2019-Aug-15 16:51N 40°51' E 008°23'0 0.0
2019-Aug-15 15:03N 40°51' E 008°23'0 0.0
2019-Aug-15 14:39N 40°51' E 008°23'0 0.0
2019-Aug-15 14:30N 40°51' E 008°23'0 0.0
2019-Aug-15 13:33N 40°51' E 008°23'0 0.0
2019-Aug-15 13:15N 40°51' E 008°23'0 0.0
2019-Aug-15 13:00N 40°51' E 008°23'0 0.0
2019-Aug-15 12:21N 40°51' E 008°23'0 0.0
2019-Aug-15 11:39N 40°51' E 008°23'0 0.0
2019-Aug-15 11:24N 40°51' E 008°23'0 0.0
2019-Aug-15 10:57N 40°51' E 008°23'0 0.0
2019-Aug-15 10:27N 40°51' E 008°23'0 0.0
2019-Aug-15 09:57N 40°51' E 008°23'0 0.0
2019-Aug-15 09:24N 40°51' E 008°23'0 0.0
2019-Aug-15 08:48N 40°51' E 008°23'0 0.0
2019-Aug-15 05:45N 40°51' E 008°23'0 1.2
2019-Aug-15 05:29N 40°51' E 008°23'2 4.5
2019-Aug-15 04:59N 40°53' E 008°24'4 7.8
2019-Aug-15 04:26N 40°57' E 008°25'4 8.2
2019-Aug-15 04:00N 41°01' E 008°26'6 8.0
2019-Aug-15 03:18N 41°06' E 008°27'3 8.1
2019-Aug-15 02:56N 41°09' E 008°26'22 8.2
2019-Aug-15 00:16N 41°31' E 008°22'2 8.2
2019-Aug-15 00:00N 41°33' E 008°22'5 8.2
2019-Aug-14 23:25N 41°38' E 008°21'3 8.1
2019-Aug-14 23:00N 41°41' E 008°21'4 7.4
2019-Aug-14 22:30N 41°45' E 008°23'4 7.8
2019-Aug-14 22:00N 41°46' E 008°28'4 8.2
2019-Aug-14 21:30N 41°48' E 008°33'4 8.4
2019-Aug-14 21:00N 41°50' E 008°38'6 8.6
2019-Aug-14 20:20N 41°53' E 008°44'2 0.8
2019-Aug-14 17:41N 41°55' E 008°45'0 0.0
2019-Aug-14 17:20N 41°55' E 008°45'0 0.0
2019-Aug-14 16:08N 41°55' E 008°45'0 0.0
2019-Aug-14 15:59N 41°55' E 008°45'0 0.0
2019-Aug-14 15:29N 41°55' E 008°45'0 0.0
2019-Aug-14 14:59N 41°55' E 008°45'0 0.0
2019-Aug-14 14:29N 41°55' E 008°45'0 0.0
2019-Aug-14 13:56N 41°55' E 008°45'0 0.0
2019-Aug-14 13:29N 41°55' E 008°45'0 0.0
2019-Aug-14 12:59N 41°55' E 008°45'0 0.0
2019-Aug-14 12:29N 41°55' E 008°45'0 0.0
2019-Aug-14 11:59N 41°55' E 008°45'0 0.0
2019-Aug-14 11:29N 41°55' E 008°45'0 0.0
2019-Aug-14 10:59N 41°55' E 008°45'0 0.0
2019-Aug-14 10:23N 41°55' E 008°45'0 0.0
2019-Aug-14 09:59N 41°55' E 008°45'0 0.0
2019-Aug-14 09:29N 41°55' E 008°45'0 0.0
2019-Aug-14 08:59N 41°55' E 008°45'0 0.0
2019-Aug-14 08:26N 41°55' E 008°45'36 5.8
2019-Aug-14 02:09N 41°20' E 008°54'3710.6
2019-Aug-13 22:40N 41°10' E 009°41'211.4
2019-Aug-13 22:30N 41°09' E 009°43'1511.7
2019-Aug-13 21:12N 40°57' E 009°56'1012.1
2019-Aug-13 20:22N 40°48' E 010°02'612.1
2019-Aug-13 19:55N 40°44' E 010°06'611.9
2019-Aug-13 19:26N 40°38' E 010°09'714.3
2019-Aug-13 18:57N 40°32' E 010°13'2316.0
2019-Aug-13 17:29N 40°11' E 010°25'815.9
2019-Aug-13 17:01N 40°04' E 010°29'  

Dump ship's entire track history